createdAt,value
2022-07-30T00:01:16.864Z,54.73
2022-07-30T00:03:43.655Z,54.57
2022-07-30T00:06:10.274Z,54.64
2022-07-30T00:08:36.870Z,54.97
2022-07-30T00:11:03.553Z,54.88
2022-07-30T00:13:30.364Z,55.03
2022-07-30T00:15:57.064Z,55.06
2022-07-30T00:18:23.670Z,55.30
2022-07-30T00:20:50.249Z,54.90
2022-07-30T00:23:17.220Z,54.99
2022-07-30T00:25:44.386Z,54.81
2022-07-30T00:28:12.783Z,55.17
2022-07-30T00:30:40.840Z,54.98
2022-07-30T00:33:08.246Z,55.26
2022-07-30T00:35:35.505Z,56.01
2022-07-30T00:38:02.169Z,55.46
2022-07-30T00:40:29.119Z,55.60
2022-07-30T00:42:56.010Z,55.46
2022-07-30T00:45:22.683Z,55.56
2022-07-30T00:47:49.424Z,55.61
2022-07-30T00:50:16.728Z,55.90
2022-07-30T00:52:43.977Z,55.34
2022-07-30T00:55:13.087Z,55.62
2022-07-30T00:57:40.530Z,55.54
2022-07-30T01:00:10.593Z,55.74
2022-07-30T01:02:37.863Z,55.17
2022-07-30T01:05:05.255Z,56.06
2022-07-30T01:07:32.013Z,55.56
2022-07-30T01:09:58.631Z,55.46
2022-07-30T01:12:27.079Z,55.96
2022-07-30T01:14:56.226Z,55.77
2022-07-30T01:17:22.863Z,55.93
2022-07-30T01:19:52.594Z,55.66
2022-07-30T01:27:45.811Z,56.11
2022-07-30T01:30:18.961Z,55.99
2022-07-30T01:32:47.747Z,56.17
2022-07-30T01:35:17.446Z,55.85
2022-07-30T01:37:45.186Z,56.32
2022-07-30T01:40:12.836Z,56.00
2022-07-30T01:42:40.215Z,56.66
2022-07-30T01:45:09.207Z,56.42
2022-07-30T01:47:38.677Z,56.39
2022-07-30T01:50:10.977Z,56.66
2022-07-30T01:52:38.543Z,56.45
2022-07-30T01:55:11.576Z,56.54
2022-07-30T01:57:47.034Z,56.82
2022-07-30T02:00:14.344Z,56.70
2022-07-30T02:02:41.387Z,56.49
2022-07-30T02:05:09.302Z,56.58
2022-07-30T02:07:42.244Z,56.31
2022-07-30T02:10:19.228Z,56.88
2022-07-30T02:12:51.747Z,56.62
2022-07-30T02:15:29.049Z,56.65
2022-07-30T02:18:02.917Z,56.38
2022-07-30T02:20:33.723Z,56.57
2022-07-30T02:23:07.526Z,56.56
2022-07-30T02:25:35.965Z,56.82
2022-07-30T02:28:07.979Z,56.83
2022-07-30T02:30:37.988Z,56.51
2022-07-30T02:33:08.485Z,57.02
2022-07-30T02:35:37.046Z,57.25
2022-07-30T02:38:05.650Z,56.97
2022-07-30T02:40:32.297Z,57.47
2022-07-30T02:43:00.881Z,57.58
2022-07-30T02:45:29.269Z,57.30
2022-07-30T02:48:00.272Z,56.56
2022-07-30T02:50:28.286Z,57.02
2022-07-30T02:52:58.009Z,57.44
2022-07-30T02:55:27.119Z,56.88
2022-07-30T02:57:55.243Z,57.02
2022-07-30T03:00:24.392Z,57.42
2022-07-30T03:02:56.753Z,57.29
2022-07-30T03:05:24.784Z,57.88
2022-07-30T03:07:53.478Z,57.45
2022-07-30T03:10:20.627Z,57.29
2022-07-30T03:12:50.322Z,57.86
2022-07-30T03:15:17.445Z,57.20
2022-07-30T03:17:46.369Z,57.18
2022-07-30T03:20:17.492Z,57.71
2022-07-30T03:22:48.318Z,57.61
2022-07-30T03:25:18.310Z,57.65
2022-07-30T03:27:45.716Z,57.32
2022-07-30T03:30:12.874Z,57.01
2022-07-30T03:32:40.531Z,57.28
2022-07-30T03:35:17.273Z,57.59
2022-07-30T03:37:45.126Z,57.42
2022-07-30T03:40:13.631Z,56.79
2022-07-30T03:42:40.349Z,56.90
2022-07-30T03:45:08.886Z,57.10
2022-07-30T03:47:38.698Z,56.83
2022-07-30T03:50:06.456Z,57.13
2022-07-30T03:52:35.269Z,57.28
2022-07-30T03:55:04.192Z,57.15
2022-07-30T03:57:31.001Z,56.82
2022-07-30T03:59:57.717Z,57.47
2022-07-30T04:02:24.825Z,57.26
2022-07-30T04:04:52.079Z,57.27
2022-07-30T04:07:18.764Z,57.59
2022-07-30T04:09:45.493Z,57.17
2022-07-30T04:12:13.881Z,57.42
2022-07-30T04:14:43.709Z,57.27
2022-07-30T04:17:19.563Z,57.69
2022-07-30T04:19:52.031Z,57.67
2022-07-30T04:22:23.484Z,57.74
2022-07-30T04:24:52.194Z,57.56
2022-07-30T04:27:19.668Z,57.81
2022-07-30T04:29:46.920Z,57.52
2022-07-30T04:32:14.049Z,57.19
2022-07-30T04:34:50.353Z,57.43
2022-07-30T04:37:19.929Z,58.07
2022-07-30T04:39:46.525Z,58.08
2022-07-30T04:42:13.197Z,57.27
2022-07-30T04:44:39.895Z,57.59
2022-07-30T04:47:06.700Z,57.59
2022-07-30T04:49:34.903Z,57.29
2022-07-30T04:52:03.585Z,57.51
2022-07-30T04:54:40.367Z,57.39
2022-07-30T04:57:08.033Z,57.37
2022-07-30T04:59:37.313Z,57.53
2022-07-30T05:02:06.834Z,58.17
2022-07-30T05:04:35.816Z,58.12
2022-07-30T05:07:03.552Z,57.86
2022-07-30T05:09:31.253Z,58.05
2022-07-30T05:11:59.418Z,58.64
2022-07-30T05:14:27.475Z,58.19
2022-07-30T05:16:55.018Z,58.59
2022-07-30T05:19:22.582Z,58.34
2022-07-30T05:21:49.357Z,58.33
2022-07-30T05:24:15.962Z,57.95
2022-07-30T05:26:42.606Z,58.48
2022-07-30T05:29:09.331Z,58.27
2022-07-30T05:31:44.682Z,58.31
2022-07-30T05:34:11.861Z,58.46
2022-07-30T05:36:38.820Z,58.82
2022-07-30T05:39:05.613Z,58.47
2022-07-30T05:41:33.297Z,58.10
2022-07-30T05:44:00.896Z,58.28
2022-07-30T05:46:28.311Z,58.48
2022-07-30T05:48:55.194Z,58.18
2022-07-30T05:51:22.331Z,59.04
2022-07-30T05:53:49.375Z,59.11
2022-07-30T05:56:16.030Z,58.62
2022-07-30T05:58:42.662Z,58.50
2022-07-30T06:01:09.526Z,58.74
2022-07-30T06:03:36.228Z,58.90
2022-07-30T06:06:05.111Z,59.00
2022-07-30T06:08:32.263Z,58.68
2022-07-30T06:10:58.982Z,58.56
2022-07-30T06:13:26.067Z,58.75
2022-07-30T06:15:53.189Z,58.42
2022-07-30T06:18:19.908Z,58.38
2022-07-30T06:20:51.816Z,58.42
2022-07-30T06:23:18.897Z,58.63
2022-07-30T06:25:45.528Z,58.29
2022-07-30T06:28:35.271Z,58.74
2022-07-30T06:30:59.208Z,58.27
2022-07-30T06:33:25.862Z,58.50
2022-07-30T06:35:52.517Z,58.47
2022-07-30T06:38:19.247Z,58.11
2022-07-30T06:40:45.830Z,58.26
2022-07-30T06:43:12.539Z,57.82
2022-07-30T06:45:39.678Z,57.97
2022-07-30T06:48:06.573Z,57.83
2022-07-30T06:50:33.331Z,57.66
2022-07-30T06:52:59.963Z,57.43
2022-07-30T06:55:26.598Z,57.46
2022-07-30T06:57:53.196Z,57.61
2022-07-30T07:00:20.675Z,57.46
2022-07-30T07:02:47.353Z,57.32
2022-07-30T07:05:14.748Z,57.18
2022-07-30T07:07:44.512Z,56.82
2022-07-30T07:10:15.737Z,57.10
2022-07-30T07:12:42.392Z,57.08
2022-07-30T07:15:09.861Z,57.07
2022-07-30T07:17:36.595Z,57.14
2022-07-30T07:20:04.270Z,57.03
2022-07-30T07:22:31.018Z,57.00
2022-07-30T07:24:57.783Z,56.73
2022-07-30T07:27:24.398Z,56.82
2022-07-30T07:30:05.023Z,56.49
2022-07-30T07:32:34.049Z,56.46
2022-07-30T07:35:01.099Z,56.41
2022-07-30T07:37:28.154Z,56.60
2022-07-30T07:39:54.736Z,56.50
2022-07-30T07:42:22.126Z,56.58
2022-07-30T07:44:48.791Z,56.33
2022-07-30T07:47:15.479Z,56.12
2022-07-30T07:49:42.283Z,55.94
2022-07-30T07:52:09.034Z,56.06
2022-07-30T07:54:35.738Z,55.83
2022-07-30T07:57:04.575Z,56.33
2022-07-30T07:59:36.263Z,56.32
2022-07-30T08:02:08.341Z,56.17
2022-07-30T08:04:35.624Z,55.74
2022-07-30T08:07:03.140Z,55.80
2022-07-30T08:09:43.663Z,55.79
2022-07-30T08:12:12.959Z,56.26
2022-07-30T08:14:39.928Z,56.03
2022-07-30T08:17:07.294Z,56.11
2022-07-30T08:19:34.443Z,56.47
2022-07-30T08:22:01.050Z,55.46
2022-07-30T08:24:27.674Z,55.48
2022-07-30T08:26:54.329Z,55.72
2022-07-30T08:29:20.922Z,55.77
2022-07-30T08:31:47.598Z,55.86
2022-07-30T08:34:14.495Z,55.78
2022-07-30T08:36:41.681Z,55.54
2022-07-30T08:39:08.852Z,56.19
2022-07-30T08:41:37.171Z,56.81
2022-07-30T08:44:10.176Z,56.53
2022-07-30T08:46:47.325Z,56.82
2022-07-30T08:49:15.785Z,57.22
2022-07-30T08:51:42.757Z,56.83
2022-07-30T08:54:09.665Z,57.37
2022-07-30T08:56:36.861Z,57.65
2022-07-30T08:59:04.463Z,57.71
2022-07-30T09:01:31.102Z,57.89
2022-07-30T09:03:57.917Z,57.71
2022-07-30T09:06:24.647Z,57.67
2022-07-30T09:08:51.231Z,58.06
2022-07-30T09:11:18.084Z,57.87
2022-07-30T09:13:45.088Z,58.23
2022-07-30T09:16:22.325Z,58.30
2022-07-30T09:18:50.109Z,58.33
2022-07-30T09:26:51.625Z,58.40
2022-07-30T09:29:21.506Z,58.36
2022-07-30T09:32:06.859Z,58.04
2022-07-30T09:39:59.518Z,57.13
2022-07-30T09:42:28.328Z,57.27
2022-07-30T09:45:07.256Z,57.20
2022-07-30T09:47:37.117Z,57.21
2022-07-30T09:50:07.439Z,57.27
2022-07-30T09:52:34.547Z,57.00
2022-07-30T09:55:01.322Z,56.16
2022-07-30T09:57:30.470Z,56.50
2022-07-30T09:59:59.712Z,55.93
2022-07-30T10:02:32.304Z,56.23
2022-07-30T10:05:16.546Z,55.99
2022-07-30T10:07:54.760Z,55.68
2022-07-30T10:10:26.091Z,56.17
2022-07-30T10:12:59.157Z,56.10
2022-07-30T10:15:32.542Z,55.05
2022-07-30T10:18:01.056Z,54.56
2022-07-30T10:20:28.296Z,55.24
2022-07-30T10:22:55.543Z,54.72
2022-07-30T10:25:27.897Z,54.83
2022-07-30T10:27:57.228Z,54.77
2022-07-30T10:30:28.162Z,54.46
2022-07-30T10:32:58.609Z,54.09
2022-07-30T10:35:34.360Z,53.61
2022-07-30T10:38:09.917Z,53.66
2022-07-30T10:40:46.234Z,53.73
2022-07-30T10:48:34.897Z,53.21
2022-07-30T10:51:01.654Z,52.92
2022-07-30T10:56:25.643Z,52.92
2022-07-30T10:59:10.322Z,52.82
2022-07-30T11:04:41.450Z,51.86
2022-07-30T11:10:08.897Z,50.92
2022-07-30T11:12:54.944Z,50.99
2022-07-30T11:15:22.322Z,51.31
2022-07-30T11:18:11.354Z,50.83
2022-07-30T11:20:40.740Z,50.83
2022-07-30T11:23:14.108Z,51.45
2022-07-30T11:25:51.767Z,51.21
2022-07-30T11:37:18.864Z,50.78
2022-07-30T11:42:35.247Z,50.64
2022-07-30T11:47:56.484Z,51.08
2022-07-30T11:50:27.263Z,50.85
2022-07-30T11:52:56.437Z,51.08
2022-07-30T11:55:26.079Z,51.07
2022-07-30T11:57:53.950Z,51.25
2022-07-30T12:00:21.237Z,51.58
2022-07-30T12:05:25.342Z,51.28
2022-07-30T12:07:57.319Z,50.98
2022-07-30T12:10:27.781Z,51.35
2022-07-30T12:13:08.072Z,51.20
2022-07-30T12:15:37.136Z,51.56
2022-07-30T12:18:25.387Z,51.37
2022-07-30T12:20:55.610Z,51.41
2022-07-30T12:23:25.062Z,51.69
2022-07-30T12:25:52.498Z,51.96
2022-07-30T12:28:23.915Z,52.10
2022-07-30T12:30:52.645Z,51.63
2022-07-30T12:33:20.480Z,51.71
2022-07-30T12:38:24.087Z,52.14
2022-07-30T12:41:06.457Z,52.20
2022-07-30T12:43:54.334Z,51.95
2022-07-30T12:46:24.652Z,51.78
2022-07-30T12:51:33.642Z,51.64
2022-07-30T12:54:19.419Z,51.56
2022-07-30T12:57:04.554Z,51.53
2022-07-30T12:59:33.694Z,51.32
2022-07-30T13:02:01.012Z,51.19
2022-07-30T13:04:28.735Z,51.45
2022-07-30T13:09:41.135Z,51.07
2022-07-30T13:12:11.751Z,51.09
2022-07-30T13:14:38.449Z,50.97
2022-07-30T13:17:06.264Z,50.92
2022-07-30T13:19:33.054Z,51.18
2022-07-30T13:21:59.737Z,51.48
2022-07-30T13:24:26.696Z,51.42
2022-07-30T13:26:53.278Z,51.07
2022-07-30T13:29:19.919Z,51.15
2022-07-30T13:31:46.623Z,50.98
2022-07-30T13:34:13.233Z,51.13
2022-07-30T13:36:40.170Z,51.24
2022-07-30T13:39:06.830Z,51.22
2022-07-30T13:41:34.383Z,51.34
2022-07-30T13:44:00.972Z,51.25
2022-07-30T13:46:27.574Z,51.09
2022-07-30T13:48:55.024Z,50.92
2022-07-30T13:51:21.781Z,51.13
2022-07-30T13:53:48.394Z,51.11
2022-07-30T13:56:15.588Z,50.42
2022-07-30T13:58:42.639Z,50.82
2022-07-30T14:01:17.256Z,50.63
2022-07-30T14:03:49.409Z,50.81
2022-07-30T14:06:17.219Z,50.52
2022-07-30T14:08:43.865Z,50.54
2022-07-30T14:11:10.516Z,50.66
2022-07-30T14:13:37.962Z,50.54
2022-07-30T14:16:08.223Z,50.07
2022-07-30T14:18:44.815Z,50.09
2022-07-30T14:21:11.425Z,50.64
2022-07-30T14:23:38.077Z,50.86
2022-07-30T14:26:04.836Z,50.21
2022-07-30T14:28:31.457Z,50.23
2022-07-30T14:30:58.049Z,50.68
2022-07-30T14:33:24.695Z,50.46
2022-07-30T14:35:51.274Z,50.02
2022-07-30T14:38:17.881Z,50.02
2022-07-30T14:40:44.589Z,50.05
2022-07-30T14:43:11.237Z,50.06
2022-07-30T14:45:37.865Z,50.21
2022-07-30T14:48:04.993Z,50.01
2022-07-30T14:50:31.607Z,50.27
2022-07-30T14:52:58.255Z,50.45
2022-07-30T14:55:25.966Z,49.89
2022-07-30T14:57:52.543Z,50.38
2022-07-30T15:00:19.401Z,49.92
2022-07-30T15:02:47.982Z,50.03
2022-07-30T15:05:14.680Z,50.21
2022-07-30T15:07:41.294Z,49.44
2022-07-30T15:10:08.530Z,49.44
2022-07-30T15:12:35.523Z,49.55
2022-07-30T15:15:05.013Z,49.78
2022-07-30T15:17:35.439Z,49.54
2022-07-30T15:20:02.188Z,49.84
2022-07-30T15:22:28.873Z,49.72
2022-07-30T15:24:55.443Z,49.78
2022-07-30T15:27:31.851Z,49.97
2022-07-30T15:30:01.011Z,50.43
2022-07-30T15:32:27.630Z,50.55
2022-07-30T15:34:55.610Z,50.58
2022-07-30T15:37:22.215Z,50.57
2022-07-30T15:39:48.925Z,50.90
2022-07-30T15:42:15.593Z,51.26
2022-07-30T15:44:48.587Z,51.41
2022-07-30T15:47:15.824Z,51.51
2022-07-30T15:49:42.425Z,51.68
2022-07-30T15:52:09.038Z,51.72
2022-07-30T15:54:35.733Z,52.37
2022-07-30T15:57:02.349Z,52.12
2022-07-30T15:59:30.241Z,52.49
2022-07-30T16:01:57.095Z,51.96
2022-07-30T16:04:31.755Z,51.95
2022-07-30T16:07:00.690Z,52.18
2022-07-30T16:09:27.641Z,52.58
2022-07-30T16:11:54.254Z,52.77
2022-07-30T16:14:20.950Z,52.50
2022-07-30T16:16:47.549Z,52.80
2022-07-30T16:19:14.139Z,52.83
2022-07-30T16:21:41.476Z,52.82
2022-07-30T16:24:08.111Z,52.77
2022-07-30T16:26:37.190Z,52.84
2022-07-30T16:29:04.808Z,53.16
2022-07-30T16:31:31.457Z,53.15
2022-07-30T16:33:58.102Z,53.33
2022-07-30T16:36:24.759Z,53.55
2022-07-30T16:38:51.388Z,53.57
2022-07-30T16:41:17.953Z,53.07
2022-07-30T16:43:44.595Z,53.41
2022-07-30T16:46:11.229Z,53.34
2022-07-30T16:48:37.857Z,53.51
2022-07-30T16:51:05.645Z,53.74
2022-07-30T16:53:32.494Z,53.42
2022-07-30T16:55:59.189Z,53.58
2022-07-30T16:58:30.521Z,53.63
2022-07-30T17:00:58.216Z,53.17
2022-07-30T17:03:25.538Z,53.73
2022-07-30T17:05:52.151Z,53.51
2022-07-30T17:08:19.244Z,53.36
2022-07-30T17:10:52.470Z,53.56
2022-07-30T17:13:19.104Z,53.45
2022-07-30T17:15:46.945Z,53.83
2022-07-30T17:18:14.023Z,53.64
2022-07-30T17:20:40.854Z,53.44
2022-07-30T17:23:07.894Z,53.29
2022-07-30T17:25:35.046Z,53.69
2022-07-30T17:28:02.073Z,53.78
2022-07-30T17:30:29.538Z,53.79
2022-07-30T17:32:56.458Z,54.04
2022-07-30T17:35:24.692Z,53.70
2022-07-30T17:37:51.605Z,53.98
2022-07-30T17:40:29.760Z,54.23
2022-07-30T17:43:07.812Z,53.85
2022-07-30T17:45:36.161Z,54.35
2022-07-30T17:48:03.642Z,54.16
2022-07-30T17:50:32.228Z,54.38
2022-07-30T17:52:59.007Z,54.60
2022-07-30T17:55:28.087Z,54.34
2022-07-30T17:57:54.935Z,54.55
2022-07-30T18:00:21.977Z,55.33
2022-07-30T18:02:48.791Z,54.85
2022-07-30T18:05:15.916Z,55.59
2022-07-30T18:07:43.629Z,55.67
2022-07-30T18:10:11.417Z,55.18
2022-07-30T18:12:38.414Z,55.45
2022-07-30T18:15:06.472Z,55.72
2022-07-30T18:17:33.084Z,56.17
2022-07-30T18:19:59.903Z,56.10
2022-07-30T18:22:29.777Z,56.18
2022-07-30T18:25:00.637Z,55.44
2022-07-30T18:27:27.598Z,55.58
2022-07-30T18:29:54.221Z,55.75
2022-07-30T18:32:21.208Z,55.60
2022-07-30T18:34:47.833Z,55.44
2022-07-30T18:37:14.463Z,55.62
2022-07-30T18:39:41.071Z,56.09
2022-07-30T18:42:07.814Z,55.57
2022-07-30T18:44:34.579Z,55.56
2022-07-30T18:47:01.312Z,55.69
2022-07-30T18:49:36.993Z,55.63
2022-07-30T18:52:06.491Z,55.98
2022-07-30T18:54:33.605Z,55.93
2022-07-30T18:57:00.293Z,55.86
2022-07-30T18:59:26.927Z,55.79
2022-07-30T19:01:53.894Z,55.98
2022-07-30T19:04:20.533Z,55.69
2022-07-30T19:06:47.158Z,56.29
2022-07-30T19:09:17.590Z,55.82
2022-07-30T19:11:45.598Z,56.32
2022-07-30T19:14:13.309Z,56.64
2022-07-30T19:16:40.897Z,56.42
2022-07-30T19:19:07.897Z,56.11
2022-07-30T19:21:34.498Z,56.54
2022-07-30T19:24:01.752Z,56.87
2022-07-30T19:26:28.589Z,56.47
2022-07-30T19:28:55.346Z,56.54
2022-07-30T19:31:21.983Z,56.16
2022-07-30T19:33:49.342Z,56.20
2022-07-30T19:36:19.026Z,56.72
2022-07-30T19:38:45.701Z,56.32
2022-07-30T19:41:14.023Z,56.78
2022-07-30T19:43:40.994Z,57.13
2022-07-30T19:46:08.376Z,56.73
2022-07-30T19:48:37.455Z,56.69
2022-07-30T19:51:05.517Z,57.07
2022-07-30T19:53:42.499Z,57.01
2022-07-30T19:56:11.472Z,57.22
2022-07-30T19:58:39.989Z,57.41
2022-07-30T20:01:08.515Z,57.41
2022-07-30T20:03:36.105Z,57.56
2022-07-30T20:06:03.881Z,57.87
2022-07-30T20:08:35.175Z,57.74
2022-07-30T20:11:02.474Z,57.46
2022-07-30T20:13:44.421Z,57.97
2022-07-30T20:16:13.129Z,58.29
2022-07-30T20:18:40.060Z,58.01
2022-07-30T20:21:14.014Z,58.35
2022-07-30T20:23:41.691Z,58.52
2022-07-30T20:26:12.400Z,58.46
2022-07-30T20:28:41.197Z,58.27
2022-07-30T20:31:08.618Z,58.71
2022-07-30T20:33:36.054Z,58.38
2022-07-30T20:36:09.683Z,58.71
2022-07-30T20:38:38.953Z,59.10
2022-07-30T20:41:09.801Z,59.01
2022-07-30T20:43:52.028Z,59.21
2022-07-30T20:46:23.238Z,59.31
2022-07-30T20:48:51.275Z,59.32
2022-07-30T20:51:18.005Z,59.23
2022-07-30T20:53:45.182Z,59.35
2022-07-30T20:56:13.285Z,59.60
2022-07-30T20:58:40.823Z,59.23
2022-07-30T21:01:07.806Z,59.01
2022-07-30T21:03:34.555Z,59.42
2022-07-30T21:06:02.626Z,59.76
2022-07-30T21:08:29.339Z,59.49
2022-07-30T21:10:57.620Z,59.65
2022-07-30T21:13:27.148Z,59.75
2022-07-30T21:16:02.183Z,59.73
2022-07-30T21:18:30.676Z,59.96
2022-07-30T21:20:57.862Z,60.07
2022-07-30T21:23:24.809Z,60.27
2022-07-30T21:26:02.120Z,60.28
2022-07-30T21:28:35.151Z,60.66
2022-07-30T21:31:02.893Z,60.70
2022-07-30T21:33:31.653Z,61.00
2022-07-30T21:35:59.065Z,60.71
2022-07-30T21:38:26.725Z,60.29
2022-07-30T21:40:53.718Z,60.75
2022-07-30T21:43:22.958Z,61.01
2022-07-30T21:45:58.132Z,60.45
2022-07-30T21:48:26.583Z,61.28
2022-07-30T21:50:54.541Z,61.26
2022-07-30T21:53:26.459Z,60.96
2022-07-30T21:56:08.111Z,61.10
2022-07-30T21:58:34.758Z,61.90
2022-07-30T22:01:16.786Z,61.29
2022-07-30T22:04:03.680Z,61.27
2022-07-30T22:06:31.216Z,61.81
2022-07-30T22:08:57.844Z,61.98
2022-07-30T22:11:24.666Z,62.20
2022-07-30T22:14:10.036Z,62.46
2022-07-30T22:16:36.752Z,62.55
2022-07-30T22:19:03.494Z,62.68
2022-07-30T22:21:30.596Z,61.90
2022-07-30T22:23:58.474Z,62.66
2022-07-30T22:26:28.504Z,62.75
2022-07-30T22:28:55.163Z,62.47
2022-07-30T22:31:21.830Z,62.74
2022-07-30T22:33:50.925Z,63.10
2022-07-30T22:36:19.905Z,63.42
2022-07-30T22:38:58.535Z,62.86
2022-07-30T22:41:25.544Z,62.91
2022-07-30T22:43:55.503Z,63.65
2022-07-30T22:46:30.231Z,63.10
2022-07-30T22:48:57.911Z,63.47
2022-07-30T22:51:26.111Z,63.90
2022-07-30T22:54:13.423Z,63.96
2022-07-30T22:56:41.588Z,63.88
2022-07-30T22:59:12.782Z,64.32
2022-07-30T23:01:43.357Z,64.08
2022-07-30T23:04:10.394Z,64.52
2022-07-30T23:06:37.267Z,64.33
2022-07-30T23:09:07.773Z,64.71
2022-07-30T23:11:38.817Z,64.46
2022-07-30T23:14:07.252Z,64.74
2022-07-30T23:16:33.863Z,64.98
2022-07-30T23:19:00.517Z,64.93
2022-07-30T23:21:27.157Z,64.83
2022-07-30T23:23:53.831Z,65.16
2022-07-30T23:26:20.458Z,65.01
2022-07-30T23:28:47.413Z,65.34
2022-07-30T23:31:14.040Z,65.28
2022-07-30T23:33:40.758Z,65.38
2022-07-30T23:36:09.225Z,65.27
2022-07-30T23:38:37.029Z,65.34
2022-07-30T23:41:05.504Z,65.59
2022-07-30T23:43:32.579Z,65.38
2022-07-30T23:45:59.672Z,65.15
2022-07-30T23:48:27.210Z,65.61
2022-07-30T23:50:54.080Z,65.78
2022-07-30T23:53:21.045Z,65.48
2022-07-30T23:55:49.143Z,65.48
2022-07-30T23:58:16.357Z,65.79
